SESA/SNC METAR and TAF weather

Enter ICAO airport designator
Station Type Date Time Source
SESA METAR 2020/12/05 23:00 UTC NOAA

SESA 052300Z 21012KT 9999 SCT013 SCT100 23/20 Q1012 RMK A2989


Station Type Date Time Source
SESA Decoded METAR 2020/12/05 23:00 UTC NOAA

Salinas / General Ulpiano Paez, Ecuador (SESA) 02-12S 080-59W 8M
Dec 05, 2020 - 06:00 PM EST / 2020.12.05 2300 UTC
Wind: from the SSW (210 degrees) at 14 MPH (12 KT):0
Visibility: greater than 7 mile(s):0
Sky conditions: partly cloudy
Temperature: 73 F (23 C)
Dew Point: 68 F (20 C)
Relative Humidity: 83%
Pressure (altimeter): 29.88 in. Hg (1012 hPa)
ob: SESA 052300Z 21012KT 9999 SCT013 SCT100 23/20 Q1012 RMK A2989
cycle: 23

Station Type Date Time Source
SESA TAF UTC NOAA

Error!

Example: see airport list